• Join FlightAware (Why Join?)
  • Login
  • US Flag 
12:36PM EDT


 

Airport Tracker/Info


-or-


 

Live Flight TrackerFlight Track Log ✈ CHQ6134 ✈ 22-Jun-2013 ✈ KIAD - KJFK

Flight Track Log - Related Links

Times and Time Zones

All times are in EDT time to prevent confusion due to time zone crossing. See the CHQ6134 flight status page for this flight to view local times or setup timezone preferences in your user account.

Time Position Orientation Groundspeed Altitude Reporting Facility
EDT Latitude Longitude Course Direction KTS MPH feet Rate Location/Type
05:52PM 38.9667 -77.5167 90° East 198 228 2,000  Level Potomac TRACON
05:53PM 39.0000 -77.5833 303° West 245 282 3,700 2,220 Climbing Potomac TRACON
05:54PM 38.9695 -77.0715 83° East  Level FlightAware Approximate
05:54PM 39.0667 -77.5833 360° North 270 311 6,500  Level Potomac TRACON
05:55PM 38.9823 -76.9434 83° East  Level FlightAware Approximate
05:55PM 39.1167 -77.5333 38° Northeast 273 314 8,500  Level Potomac TRACON
05:56PM 38.9925 -76.8148 84° East  Level FlightAware Approximate
05:57PM 39.0000 -76.6861 90° East  Level FlightAware Approximate
05:57PM 39.1511 -77.3181 78° East 317 365 10,000  Level Washington Center
05:58PM 39.1361 -77.1919 99° East 334 384 11,800 1,680 Climbing Washington Center
05:59PM 39.1192 -77.0658 100° East 342 394 13,400 1,440 Climbing Washington Center
06:00PM 39.1017 -76.9422 100° East 354 407 14,800 1,380 Climbing Washington Center
06:01PM 39.0844 -76.8164 100° East 354 407 16,200 1,080 Climbing Washington Center
06:02PM 39.0667 -76.6903 100° East 354 407 17,000 360 Climbing Washington Center
06:03PM 39.0531 -76.5778 99° East 341 392 17,000  Level Washington Center
06:04PM 39.0353 -76.4656 101° East 330 380 17,000  Level Washington Center
06:05PM 39.0069 -76.3503 108° East 325 374 17,000  Level Washington Center
06:06PM 38.9803 -76.2431 108° East 325 374 17,000 -60 Level Washington Center
06:07PM 38.9933 -76.1258 82° East 312 359 16,900 -60 Descending Washington Center
06:08PM 39.0086 -76.0056 81° East 319 367 16,900  Level Washington Center
06:09PM 39.0297 -75.8883 77° East 330 380 16,900  Level Washington Center
06:10PM 39.0467 -75.7706 79° East 330 380 16,900  Level Washington Center
06:11PM 39.0633 -75.6503 80° East 335 386 16,900  Level Washington Center
06:12PM 39.0675 -75.5328 87° East 330 380 16,900  Level Washington Center
06:13PM 39.0717 -75.4178 87° East 330 380 16,900  Level Washington Center
06:14PM 39.0817 -75.2975 84° East 330 380 16,900  Level Washington Center
06:15PM 39.1356 -75.1903 57° Northeast 335 386 16,900  Level Washington Center
06:16PM 39.1894 -75.0856 56° Northeast 335 386 16,900  Level Washington Center
06:18PM 39.3064 -74.8681 55° Northeast 344 396 16,900  Level New York Center
06:19PM 39.3622 -74.7611 56° Northeast 344 396 16,900  Level New York Center
06:20PM 39.4158 -74.6567 56° Northeast 344 396 16,900  Level New York Center
06:21PM 39.4714 -74.5494 56° Northeast 344 396 16,900  Level New York Center
06:22PM 39.5225 -74.4525 56° Northeast 344 396 17,000  Climbing New York Center
06:23PM 39.5864 -74.3375 54° Northeast 355 409 17,000  Level New York Center
06:24PM 39.6439 -74.2325 55° Northeast 355 409 17,000  Level New York Center
06:25PM 39.7006 -74.1436 50° Northeast 355 409 17,000  Level New York Center
06:26PM 39.7758 -74.0606 40° Northeast 355 409 17,000 -1,200 Level New York Center
06:27PM 39.8594 -73.9781 37° Northeast 339 390 14,700 -2,520 Descending New York Center
06:28PM 39.9444 -73.9169 29° Northeast 339 390 12,100 -1,980 Descending New York Center
06:29PM 40.0211 -73.8608 29° Northeast 334 384 10,900 -600 Descending New York Center
06:30PM 40.0894 -73.8775 349° North 278 320 11,000 -60 Climbing New York Center
06:31PM 40.1833 -73.8667 North 303 349 10,800 -900 Descending New York TRACON
06:32PM 40.2167 -73.7667 66° East 287 330 9,200 -1,680 Descending New York TRACON
06:33PM 40.2500 -73.7000 57° Northeast 288 331 7,700 -1,260 Descending New York TRACON
06:34PM 40.3167 -73.6500 30° Northeast 263 303 6,900 -360 Descending New York TRACON
06:35PM 40.3731 -73.6178 24° Northeast 248 285 7,000  Climbing New York Center
06:36PM 40.4347 -73.5714 30° Northeast 236 272 7,000 -120 Level New York Center
06:37PM 40.4878 -73.5300 31° Northeast 236 272 6,800 -900 Descending New York Center
06:38PM 40.5667 -73.4667 31° Northeast 236 272 5,200 -1,380 Descending New York TRACON
06:39PM 40.6167 -73.4333 27° Northeast 232 267 4,000 -600 Descending New York TRACON
06:40PM 40.6667 -73.3833 37° Northeast 230 265 4,000  Level New York TRACON
06:41PM 40.7167 -73.3833 360° North 234 269 4,000 -480 Level New York TRACON
06:42PM 40.7500 -73.4500 303° West 217 250 3,200 -1,020 Descending New York TRACON
06:43PM 40.7667 -73.5167 288° West 214 246 2,000 -600 Descending New York TRACON
06:44PM 40.7833 -73.6000 285° West 213 245 2,000  Level New York TRACON
06:45PM 40.7500 -73.6667 237° Southwest 187 215 2,000 -120 Level New York TRACON
06:46PM 40.7167 -73.7000 217° Southwest 132 152 1,800 -240 Descending New York TRACON